Time;durP1;ratioP1;P1;durP2;ratioP2;P2;SDS_P1;SDS_P2;PMS_P1;PMS_P2;Temp;Humidity;BMP_temperature;BMP_pressure;BME280_temperature;BME280_humidity;BME280_pressure;Samples;Min_cycle;Max_cycle;Signal;HPM_P1;HPM_P2
2021/10/27 00:00:06;;;;;;;12.90;11.90;;;13.00;99.90;;;;;;5106701;28;20488;-70
2021/10/27 00:02:33;;;;;;;12.73;11.63;;;13.00;99.90;;;;;;5109204;28;20518;-75
2021/10/27 00:05:02;;;;;;;12.97;11.97;;;13.00;99.90;;;;;;5099776;28;20504;-72
2021/10/27 00:07:28;;;;;;;12.60;11.70;;;12.90;99.90;;;;;;5097961;28;20454;-72
2021/10/27 00:09:55;;;;;;;12.33;11.53;;;12.90;99.90;;;;;;5098453;28;20454;-71
2021/10/27 00:12:22;;;;;;;11.90;11.13;;;13.00;99.90;;;;;;5106727;28;20465;-71
2021/10/27 00:14:51;;;;;;;12.93;12.13;;;13.00;99.90;;;;;;5104563;28;20453;-72
2021/10/27 00:17:18;;;;;;;13.33;12.33;;;13.00;99.90;;;;;;5098787;28;20458;-74
2021/10/27 00:19:45;;;;;;;12.80;11.90;;;13.10;99.90;;;;;;5095853;28;20458;-70
2021/10/27 00:22:12;;;;;;;13.07;12.07;;;13.10;99.90;;;;;;5106386;28;20545;-71
2021/10/27 00:24:39;;;;;;;11.93;11.03;;;13.10;99.90;;;;;;5099377;28;20945;-71
2021/10/27 00:27:07;;;;;;;12.20;11.47;;;13.10;99.90;;;;;;5101676;27;20972;-70
2021/10/27 00:29:34;;;;;;;12.10;11.33;;;13.10;99.90;;;;;;5101425;28;20481;-73
2021/10/27 00:35:24;;;;;;;13.03;11.93;;;13.00;99.90;;;;;;5113573;28;20462;-70
2021/10/27 00:37:51;;;;;;;12.97;12.07;;;13.00;99.90;;;;;;5113513;28;20456;-72
2021/10/27 00:40:18;;;;;;;13.03;12.13;;;12.90;99.90;;;;;;5112766;28;20473;-73
2021/10/27 00:42:45;;;;;;;12.83;11.83;;;12.80;99.90;;;;;;5113910;28;20464;-70
2021/10/27 00:45:11;;;;;;;13.77;12.50;;;12.80;99.90;;;;;;5113142;28;20511;-70
2021/10/27 00:47:38;;;;;;;12.73;11.90;;;12.70;99.90;;;;;;5113391;28;20483;-71
2021/10/27 00:50:06;;;;;;;12.00;11.23;;;12.80;99.90;;;;;;5113130;28;20453;-73
2021/10/27 00:52:34;;;;;;;12.37;11.67;;;12.80;99.90;;;;;;5113884;28;20446;-73
2021/10/27 00:55:02;;;;;;;12.30;11.30;;;12.80;99.90;;;;;;5112630;28;20461;-70
2021/10/27 00:57:29;;;;;;;12.80;11.90;;;12.70;99.90;;;;;;5112925;28;20449;-70
2021/10/27 00:59:58;;;;;;;13.73;12.73;;;12.80;99.90;;;;;;5112972;28;20461;-74
2021/10/27 01:02:25;;;;;;;13.93;12.80;;;12.80;99.90;;;;;;5112752;28;20449;-70
2021/10/27 01:04:52;;;;;;;13.63;12.63;;;12.80;99.90;;;;;;5112937;28;20472;-73
2021/10/27 01:07:18;;;;;;;13.10;12.30;;;12.80;99.90;;;;;;5112440;28;20938;-71
2021/10/27 01:09:47;;;;;;;13.10;12.20;;;12.80;99.90;;;;;;5113071;28;20449;-70
2021/10/27 01:12:14;;;;;;;13.70;12.60;;;12.80;99.90;;;;;;5111781;28;20452;-70
2021/10/27 01:14:43;;;;;;;21.37;13.03;;;12.80;99.90;;;;;;5112785;28;20943;-70
2021/10/27 01:17:13;;;;;;;13.90;13.00;;;12.80;99.90;;;;;;5112789;28;20456;-70
2021/10/27 01:19:47;;;;;;;14.33;13.13;;;12.80;99.90;;;;;;5112242;28;20453;-72
2021/10/27 01:22:14;;;;;;;13.67;12.67;;;12.70;99.90;;;;;;5112488;28;20492;-70
2021/10/27 01:24:41;;;;;;;14.13;12.90;;;12.70;99.90;;;;;;5112731;28;20464;-71
2021/10/27 01:27:08;;;;;;;16.33;13.90;;;12.60;99.90;;;;;;5113147;28;20452;-70
2021/10/27 01:29:36;;;;;;;14.50;13.53;;;12.60;99.90;;;;;;5112473;28;20456;-70
2021/10/27 01:32:03;;;;;;;15.30;14.10;;;12.50;99.90;;;;;;5100829;28;20541;-70
2021/10/27 01:34:30;;;;;;;14.40;13.10;;;12.50;99.90;;;;;;5103194;28;20834;-70
2021/10/27 01:36:58;;;;;;;15.60;14.20;;;12.40;99.90;;;;;;5099515;28;20461;-70
2021/10/27 01:39:25;;;;;;;15.00;14.00;;;12.40;99.90;;;;;;5102022;28;20863;-71
2021/10/27 01:41:52;;;;;;;14.80;13.70;;;12.30;99.90;;;;;;5097722;28;20490;-72
2021/10/27 01:44:20;;;;;;;16.83;15.37;;;12.30;99.90;;;;;;5104105;28;20465;-70
2021/10/27 01:46:47;;;;;;;14.23;12.93;;;12.30;99.90;;;;;;5104211;28;20513;-70
2021/10/27 01:49:14;;;;;;;15.00;13.40;;;12.20;99.90;;;;;;5100780;28;20470;-70
2021/10/27 01:51:42;;;;;;;14.87;13.60;;;12.10;99.90;;;;;;5105002;28;20489;-71
2021/10/27 01:54:10;;;;;;;15.10;13.97;;;12.10;99.90;;;;;;5101444;28;20457;-70
2021/10/27 01:56:37;;;;;;;14.57;13.20;;;12.10;99.90;;;;;;5099242;28;20827;-75
2021/10/27 01:59:05;;;;;;;15.57;14.10;;;12.10;99.90;;;;;;5102975;28;20457;-70
2021/10/27 02:01:32;;;;;;;15.70;14.20;;;12.00;99.90;;;;;;5098611;28;20461;-70
2021/10/27 02:04:00;;;;;;;14.90;13.70;;;12.00;99.90;;;;;;5101322;28;20465;-71
2021/10/27 02:06:28;;;;;;;15.93;14.60;;;11.90;99.90;;;;;;5101639;28;20473;-70
2021/10/27 02:08:55;;;;;;;15.77;14.30;;;12.00;99.90;;;;;;5101959;28;20469;-74
2021/10/27 02:11:23;;;;;;;15.37;14.27;;;12.00;99.90;;;;;;5097828;28;20820;-71
2021/10/27 02:13:50;;;;;;;15.00;13.47;;;12.00;99.90;;;;;;5096014;28;20462;-71
2021/10/27 02:16:17;;;;;;;16.10;14.40;;;12.10;99.90;;;;;;5103467;28;20894;-69
2021/10/27 02:18:44;;;;;;;15.07;13.77;;;12.20;99.90;;;;;;5102434;28;20473;-71
2021/10/27 02:21:10;;;;;;;15.17;13.77;;;12.30;99.90;;;;;;5106264;28;20751;-71
2021/10/27 02:23:38;;;;;;;16.50;14.20;;;12.30;99.90;;;;;;5102429;28;20511;-70
2021/10/27 02:26:05;;;;;;;15.83;14.67;;;12.40;99.90;;;;;;5099451;28;20477;-71
2021/10/27 02:28:34;;;;;;;15.37;14.00;;;12.40;99.90;;;;;;5098250;28;21042;-71
2021/10/27 02:31:01;;;;;;;15.07;14.00;;;12.50;99.90;;;;;;5103524;28;20845;-71
2021/10/27 02:33:28;;;;;;;15.90;14.60;;;12.60;99.90;;;;;;5097516;28;20458;-71
2021/10/27 02:35:54;;;;;;;16.00;14.50;;;12.60;99.90;;;;;;5099491;28;20461;-71
2021/10/27 02:38:21;;;;;;;14.83;13.53;;;12.60;99.90;;;;;;5104179;28;20517;-70
2021/10/27 02:40:48;;;;;;;15.83;14.30;;;12.70;99.90;;;;;;5100154;28;20485;-72
2021/10/27 02:43:16;;;;;;;16.57;13.90;;;12.70;99.90;;;;;;5099816;28;20456;-74
2021/10/27 02:45:46;;;;;;;15.87;13.47;;;12.70;99.90;;;;;;5103170;28;20576;-73
2021/10/27 02:48:13;;;;;;;14.97;13.73;;;12.80;99.90;;;;;;5099176;28;20462;-70
2021/10/27 02:50:41;;;;;;;14.90;13.50;;;12.80;99.90;;;;;;5100958;28;20988;-70
2021/10/27 02:53:08;;;;;;;16.13;13.73;;;12.90;99.90;;;;;;5099383;28;20464;-71
2021/10/27 02:55:35;;;;;;;14.23;12.93;;;12.90;99.90;;;;;;5101728;28;20477;-70
2021/10/27 02:58:02;;;;;;;14.80;13.70;;;13.00;99.90;;;;;;5103137;28;20947;-71
2021/10/27 03:00:30;;;;;;;15.33;14.00;;;13.00;99.90;;;;;;5106972;28;21168;-71
2021/10/27 03:02:59;;;;;;;14.77;13.67;;;13.00;99.90;;;;;;5101643;28;20828;-74
2021/10/27 03:05:26;;;;;;;16.40;14.97;;;13.00;99.90;;;;;;5108618;28;20968;-70
2021/10/27 03:07:53;;;;;;;24.87;16.30;;;13.10;99.90;;;;;;5103220;28;20947;-71
2021/10/27 03:10:20;;;;;;;16.77;13.70;;;13.10;99.90;;;;;;5109014;28;20461;-73
2021/10/27 03:12:46;;;;;;;15.90;14.33;;;13.20;99.90;;;;;;5104706;28;20464;-72
2021/10/27 03:15:13;;;;;;;14.70;13.50;;;13.20;99.90;;;;;;5102747;28;20972;-74
2021/10/27 03:17:40;;;;;;;14.37;13.17;;;13.20;99.90;;;;;;5099891;28;20458;-73
2021/10/27 03:20:10;;;;;;;15.67;14.17;;;13.20;99.90;;;;;;5105939;27;20472;-74
2021/10/27 03:22:38;;;;;;;22.90;15.17;;;13.20;99.90;;;;;;5106812;28;20500;-70
2021/10/27 03:25:06;;;;;;;15.53;14.23;;;13.10;99.90;;;;;;5101401;28;20996;-70
2021/10/27 03:27:33;;;;;;;15.63;14.40;;;13.20;99.90;;;;;;5105120;28;20500;-72
2021/10/27 03:30:00;;;;;;;21.10;15.10;;;13.20;99.90;;;;;;5101523;28;20963;-71
2021/10/27 03:32:27;;;;;;;16.73;15.13;;;13.20;99.90;;;;;;5105142;28;20491;-70
2021/10/27 03:34:54;;;;;;;17.03;14.33;;;13.20;99.90;;;;;;5105060;28;20460;-72
2021/10/27 03:37:23;;;;;;;16.47;14.97;;;13.20;99.90;;;;;;5106426;28;20811;-73
2021/10/27 03:39:51;;;;;;;15.53;14.23;;;13.20;99.90;;;;;;5101499;28;20833;-72
2021/10/27 03:42:17;;;;;;;15.20;14.10;;;13.30;99.90;;;;;;5101312;28;20977;-70
2021/10/27 03:44:44;;;;;;;15.43;14.40;;;13.20;99.90;;;;;;5103510;28;20536;-74
2021/10/27 03:47:11;;;;;;;18.10;15.10;;;13.20;99.90;;;;;;5108117;28;20492;-72
2021/10/27 03:49:38;;;;;;;16.57;14.00;;;13.20;99.90;;;;;;5105349;28;20457;-73
2021/10/27 03:52:05;;;;;;;16.77;15.57;;;13.20;99.90;;;;;;5106698;28;20472;-72
2021/10/27 03:54:34;;;;;;;15.80;14.30;;;13.20;99.90;;;;;;5106437;28;20562;-71
2021/10/27 03:57:01;;;;;;;18.50;14.90;;;13.20;99.90;;;;;;5100299;28;20454;-70
2021/10/27 03:59:28;;;;;;;17.27;15.60;;;13.10;99.90;;;;;;5110782;28;20461;-71
2021/10/27 04:01:55;;;;;;;15.87;14.57;;;13.10;99.90;;;;;;5096777;28;20827;-71
2021/10/27 04:04:21;;;;;;;16.93;15.23;;;13.20;99.90;;;;;;5103684;28;20468;-70
2021/10/27 04:06:48;;;;;;;16.23;14.97;;;13.10;99.90;;;;;;5104098;28;20517;-70
2021/10/27 04:09:15;;;;;;;15.97;14.70;;;13.10;99.90;;;;;;5101240;28;20495;-71
2021/10/27 04:11:43;;;;;;;17.03;15.13;;;13.10;99.90;;;;;;5108168;28;20564;-70
2021/10/27 04:14:11;;;;;;;21.00;15.77;;;13.10;99.90;;;;;;5100840;28;20468;-72
2021/10/27 04:16:38;;;;;;;16.33;15.03;;;13.10;99.90;;;;;;5105398;28;20544;-72
2021/10/27 04:19:06;;;;;;;15.93;14.67;;;13.10;99.90;;;;;;5102448;28;20450;-70
2021/10/27 04:21:33;;;;;;;16.80;14.70;;;13.00;99.90;;;;;;5098199;28;20484;-73
2021/10/27 04:24:00;;;;;;;16.37;14.87;;;13.00;99.90;;;;;;5109501;27;21262;-69
2021/10/27 04:26:27;;;;;;;16.20;14.90;;;13.00;99.90;;;;;;5105187;28;20485;-70
2021/10/27 04:28:55;;;;;;;16.63;14.97;;;13.00;99.90;;;;;;5106781;28;20465;-70
2021/10/27 04:31:22;;;;;;;16.67;15.47;;;13.00;99.90;;;;;;5105253;28;20477;-72
2021/10/27 04:33:49;;;;;;;17.17;15.70;;;13.00;99.90;;;;;;5109823;28;20461;-70
2021/10/27 04:36:16;;;;;;;16.10;14.70;;;13.00;99.90;;;;;;5111218;27;20491;-70
2021/10/27 04:38:43;;;;;;;17.83;16.07;;;13.00;99.90;;;;;;5102421;28;20458;-70
2021/10/27 04:41:10;;;;;;;16.63;15.43;;;13.00;99.90;;;;;;5112103;27;20480;-73
2021/10/27 04:43:38;;;;;;;18.47;16.57;;;13.00;99.90;;;;;;5106336;27;20453;-70
2021/10/27 04:46:07;;;;;;;15.97;14.80;;;13.10;99.90;;;;;;5098690;27;20517;-74
2021/10/27 04:48:34;;;;;;;16.40;14.80;;;13.00;99.90;;;;;;5104714;28;21080;-74
2021/10/27 04:51:00;;;;;;;17.67;16.20;;;13.00;99.90;;;;;;5116731;27;20459;-69
2021/10/27 04:53:28;;;;;;;15.60;14.60;;;13.00;99.90;;;;;;5105320;28;20458;-69
2021/10/27 04:55:55;;;;;;;16.60;15.10;;;13.00;99.90;;;;;;5105870;27;20882;-70
2021/10/27 04:58:22;;;;;;;19.37;16.47;;;13.10;99.90;;;;;;5103343;27;20464;-70
2021/10/27 05:00:50;;;;;;;16.87;15.47;;;13.10;99.90;;;;;;5109342;27;20461;-71
2021/10/27 05:03:19;;;;;;;21.73;16.30;;;13.10;99.90;;;;;;5109847;27;20458;-73
2021/10/27 05:05:48;;;;;;;16.47;15.07;;;13.10;99.90;;;;;;5104846;27;20457;-69
2021/10/27 05:08:18;;;;;;;16.67;14.60;;;13.10;99.90;;;;;;5096572;27;20449;-69
2021/10/27 05:10:45;;;;;;;16.73;15.30;;;13.10;99.90;;;;;;5098937;27;20560;-71
2021/10/27 05:13:13;;;;;;;16.40;15.20;;;13.10;99.90;;;;;;5098891;27;20485;-69
2021/10/27 05:15:40;;;;;;;16.70;15.40;;;13.10;99.90;;;;;;5102530;27;20462;-73
2021/10/27 05:18:06;;;;;;;15.30;13.70;;;13.10;99.90;;;;;;5102288;28;20480;-72
2021/10/27 05:20:35;;;;;;;19.50;15.17;;;13.20;99.90;;;;;;5092266;28;20462;-73
2021/10/27 05:23:02;;;;;;;15.73;14.63;;;13.10;99.90;;;;;;5093836;27;21054;-71
2021/10/27 05:25:29;;;;;;;19.60;17.60;;;13.10;99.90;;;;;;5105916;27;20508;-73
2021/10/27 05:27:55;;;;;;;16.90;15.70;;;13.10;99.90;;;;;;5100570;27;20496;-69
2021/10/27 05:30:22;;;;;;;17.60;15.67;;;13.20;99.90;;;;;;5104711;27;20485;-70
2021/10/27 05:32:49;;;;;;;15.90;14.80;;;13.20;99.90;;;;;;5104652;27;20460;-69
2021/10/27 05:35:17;;;;;;;18.47;16.93;;;13.20;99.90;;;;;;5106964;27;21006;-72
2021/10/27 05:37:47;;;;;;;17.13;15.97;;;13.20;99.90;;;;;;5098150;27;20461;-72
2021/10/27 05:40:14;;;;;;;17.97;16.30;;;13.20;99.90;;;;;;5095879;27;20480;-68
2021/10/27 05:42:40;;;;;;;17.43;15.50;;;13.30;99.90;;;;;;5097176;27;20462;-69
2021/10/27 05:45:09;;;;;;;16.90;15.60;;;13.30;99.90;;;;;;5104439;27;20453;-70
2021/10/27 05:47:39;;;;;;;21.37;17.00;;;13.20;99.90;;;;;;5109247;27;20488;-69
2021/10/27 05:50:24;;;;;;;16.80;15.57;;;13.20;99.90;;;;;;5098942;27;20459;-68
2021/10/27 05:55:36;;;;;;;17.73;15.70;;;13.30;99.90;;;;;;5105578;27;20475;-69
2021/10/27 05:58:05;;;;;;;17.73;16.33;;;13.30;99.90;;;;;;5096325;27;20457;-70
2021/10/27 06:00:32;;;;;;;16.60;15.30;;;13.30;99.90;;;;;;5096059;27;20469;-68
2021/10/27 06:02:59;;;;;;;16.50;15.10;;;13.30;99.90;;;;;;5094935;27;20580;-69
2021/10/27 06:05:26;;;;;;;16.97;15.70;;;13.30;99.90;;;;;;5104812;27;20465;-68
2021/10/27 06:07:55;;;;;;;17.63;15.57;;;13.30;99.90;;;;;;5098646;27;20485;-68
2021/10/27 06:10:23;;;;;;;18.23;16.40;;;13.30;99.90;;;;;;5089632;28;20854;-68
2021/10/27 06:12:55;;;;;;;15.87;14.87;;;13.40;99.90;;;;;;5091817;28;20564;-69
2021/10/27 06:15:22;;;;;;;17.37;15.97;;;13.30;99.90;;;;;;5095708;28;21178;-71
2021/10/27 06:17:50;;;;;;;19.60;18.10;;;13.20;99.90;;;;;;5096067;28;20556;-72
2021/10/27 06:20:18;;;;;;;19.77;18.17;;;13.20;99.90;;;;;;5096066;27;20466;-69
2021/10/27 06:22:44;;;;;;;19.33;17.70;;;13.10;99.90;;;;;;5104424;27;20452;-69
2021/10/27 06:25:13;;;;;;;19.70;18.10;;;13.00;99.90;;;;;;5093460;27;20469;-68
2021/10/27 06:27:43;;;;;;;19.30;17.60;;;13.10;99.90;;;;;;5097690;28;20494;-71
2021/10/27 06:30:14;;;;;;;19.87;18.23;;;13.20;99.90;;;;;;5098611;28;20572;-68
2021/10/27 06:32:47;;;;;;;18.10;16.40;;;13.20;99.90;;;;;;5096862;28;20490;-71
2021/10/27 06:35:16;;;;;;;18.17;16.77;;;13.20;99.90;;;;;;5098762;28;20960;-69
2021/10/27 06:48:44;;;;;;;17.97;16.67;;;13.20;99.90;;;;;;5095174;28;20982;-71
2021/10/27 06:51:11;;;;;;;19.13;17.20;;;13.20;99.90;;;;;;5096459;28;20562;-70
2021/10/27 06:53:38;;;;;;;18.07;16.63;;;13.20;99.90;;;;;;5097555;28;20944;-69
2021/10/27 06:56:10;;;;;;;19.90;18.00;;;13.10;99.90;;;;;;5099613;28;20465;-68
2021/10/27 06:58:44;;;;;;;18.80;17.27;;;13.20;99.90;;;;;;5094508;28;20511;-68
2021/10/27 07:01:17;;;;;;;18.17;16.77;;;13.10;99.90;;;;;;5098452;28;20485;-68
2021/10/27 07:17:26;;;;;;;17.53;16.13;;;13.10;99.90;;;;;;5100688;28;20536;-71
2021/10/27 07:19:54;;;;;;;17.47;16.07;;;13.10;99.90;;;;;;5099531;28;20457;-69
2021/10/27 07:22:21;;;;;;;17.57;16.30;;;13.10;99.90;;;;;;5098930;28;21057;-68
2021/10/27 07:24:48;;;;;;;17.97;16.80;;;13.20;99.90;;;;;;5095066;28;20466;-68
2021/10/27 07:27:16;;;;;;;18.03;16.20;;;13.20;99.90;;;;;;5095698;28;21008;-69
2021/10/27 07:29:44;;;;;;;16.53;15.30;;;13.30;99.90;;;;;;5097534;28;20955;-68
2021/10/27 07:32:13;;;;;;;18.23;16.57;;;13.30;99.90;;;;;;5096532;28;20477;-69
2021/10/27 07:34:42;;;;;;;19.00;17.07;;;13.40;99.90;;;;;;5099087;27;20460;-70
2021/10/27 07:40:07;;;;;;;19.10;17.50;;;13.30;99.90;;;;;;5099285;28;21653;-71
2021/10/27 07:42:38;;;;;;;19.43;16.87;;;13.30;99.90;;;;;;5101952;27;20544;-72
2021/10/27 07:45:06;;;;;;;16.67;15.40;;;13.40;99.90;;;;;;5093998;28;20496;-71
2021/10/27 07:47:33;;;;;;;17.90;16.43;;;13.50;99.90;;;;;;5099810;28;21030;-68
2021/10/27 07:50:00;;;;;;;17.53;16.43;;;13.50;99.90;;;;;;5091350;28;20539;-71
2021/10/27 07:52:28;;;;;;;17.20;15.97;;;13.60;99.90;;;;;;5096696;28;20469;-68
2021/10/27 07:54:55;;;;;;;18.00;16.80;;;13.50;99.90;;;;;;5106510;27;20469;-68
2021/10/27 07:57:22;;;;;;;18.70;17.50;;;13.50;99.90;;;;;;5107992;27;20453;-68
2021/10/27 07:59:51;;;;;;;18.30;17.00;;;13.50;99.90;;;;;;5090973;28;20465;-69
2021/10/27 08:02:18;;;;;;;18.70;17.00;;;13.60;99.90;;;;;;5101921;27;20457;-71
2021/10/27 08:04:46;;;;;;;18.90;17.17;;;13.60;99.90;;;;;;5093491;28;20584;-68
2021/10/27 08:07:13;;;;;;;17.60;16.40;;;13.70;99.90;;;;;;5099138;28;21111;-68
2021/10/27 08:09:41;;;;;;;17.73;16.57;;;13.80;99.90;;;;;;5098761;28;20464;-69
2021/10/27 08:12:09;;;;;;;17.13;16.10;;;13.90;99.90;;;;;;5102799;28;20453;-68
2021/10/27 08:14:36;;;;;;;17.73;16.53;;;14.00;99.90;;;;;;5100086;28;20493;-70
2021/10/27 08:17:04;;;;;;;17.87;16.47;;;14.10;99.90;;;;;;5100138;27;21106;-69
2021/10/27 08:19:31;;;;;;;17.10;16.00;;;14.20;99.90;;;;;;5108430;27;20472;-68
2021/10/27 08:22:01;;;;;;;18.40;16.90;;;14.20;99.90;;;;;;5106372;27;20469;-71
2021/10/27 08:24:29;;;;;;;17.87;16.60;;;14.20;99.90;;;;;;5103439;27;20897;-68
2021/10/27 08:27:05;;;;;;;18.23;16.73;;;14.30;99.90;;;;;;5117927;27;20503;-71
2021/10/27 08:29:37;;;;;;;17.17;15.97;;;14.30;99.90;;;;;;5102885;27;20531;-71
2021/10/27 08:32:14;;;;;;;17.50;16.00;;;14.40;99.90;;;;;;5094278;28;20490;-69
2021/10/27 08:34:46;;;;;;;17.13;16.03;;;14.50;99.90;;;;;;5096671;28;20460;-68
2021/10/27 08:37:13;;;;;;;17.13;15.73;;;14.40;99.90;;;;;;5101631;28;20453;-68
2021/10/27 08:39:41;;;;;;;17.23;16.23;;;14.50;99.90;;;;;;5101249;27;20493;-67
2021/10/27 08:42:08;;;;;;;17.67;16.57;;;14.50;99.90;;;;;;5099616;28;20596;-69
2021/10/27 08:44:36;;;;;;;17.50;16.20;;;14.60;99.90;;;;;;5096635;27;20543;-70
2021/10/27 08:47:05;;;;;;;17.90;16.50;;;14.60;99.90;;;;;;5100171;27;20457;-69
2021/10/27 08:49:33;;;;;;;17.97;16.47;;;14.60;99.90;;;;;;5091574;28;20457;-72
2021/10/27 08:52:03;;;;;;;18.53;17.20;;;14.70;99.90;;;;;;5100288;28;20880;-69
2021/10/27 08:54:31;;;;;;;18.27;16.87;;;14.80;99.90;;;;;;5093616;28;20460;-69
2021/10/27 08:57:03;;;;;;;16.57;15.57;;;14.80;99.90;;;;;;5095217;27;20482;-68
2021/10/27 08:59:40;;;;;;;17.20;15.97;;;14.90;99.90;;;;;;5095406;28;20450;-68
2021/10/27 09:05:34;;;;;;;16.77;15.50;;;14.90;99.90;;;;;;5042322;28;20603;-68
2021/10/27 09:16:35;;;;;;;17.60;15.93;;;15.20;99.90;;;;;;5101808;27;20543;-68
2021/10/27 09:36:15;;;;;;;18.90;17.00;;;16.00;99.90;;;;;;5099849;27;20460;-68
2021/10/27 09:55:49;;;;;;;17.40;16.40;;;17.40;99.90;;;;;;5102912;27;20871;-68
2021/10/27 10:06:48;;;;;;;16.87;15.57;;;17.80;99.90;;;;;;5021883;28;21600;-67
2021/10/27 10:09:18;;;;;;;21.23;16.77;;;17.70;99.90;;;;;;5088487;27;20956;-68
2021/10/27 10:11:46;;;;;;;16.83;15.83;;;17.60;99.90;;;;;;5090617;27;20453;-70
2021/10/27 10:14:14;;;;;;;17.00;15.90;;;17.60;99.90;;;;;;5096086;27;20542;-68
2021/10/27 10:16:44;;;;;;;17.33;15.70;;;17.60;99.90;;;;;;5101235;27;20906;-68
2021/10/27 10:19:14;;;;;;;16.60;15.40;;;17.70;99.90;;;;;;5106830;27;20456;-68
2021/10/27 10:21:43;;;;;;;16.70;15.50;;;18.30;99.90;;;;;;5100938;27;20468;-70
2021/10/27 10:24:38;;;;;;;16.83;15.43;;;18.80;99.90;;;;;;5107488;27;20457;-70
2021/10/27 10:27:11;;;;;;;14.80;14.10;;;19.20;99.90;;;;;;5049252;27;20450;-69
2021/10/27 10:30:00;;;;;;;15.90;14.90;;;19.50;99.90;;;;;;5097911;28;20860;-67
2021/10/27 10:32:37;;;;;;;15.10;14.20;;;19.50;99.90;;;;;;5097835;27;20465;-69
2021/10/27 10:35:12;;;;;;;15.17;14.07;;;19.90;99.90;;;;;;5096262;27;20470;-68
2021/10/27 10:37:45;;;;;;;14.73;13.83;;;19.70;99.90;;;;;;5102519;28;20464;-68
2021/10/27 10:41:13;;;;;;;14.80;13.87;;;19.50;99.90;;;;;;5098094;28;20872;-69
2021/10/27 11:23:21;;;;;;;14.87;14.10;;;20.50;99.90;;;;;;5100569;27;20483;-69
2021/10/27 11:26:11;;;;;;;15.80;14.50;;;20.70;99.90;;;;;;5098837;27;20495;-67
2021/10/27 11:39:38;;;;;;;16.00;14.97;;;20.60;99.90;;;;;;5099611;27;20467;-69
2021/10/27 11:42:21;;;;;;;15.57;14.60;;;20.50;99.90;;;;;;5101390;27;20651;-70
2021/10/27 11:44:53;;;;;;;14.83;14.13;;;20.40;99.90;;;;;;5104240;27;20509;-68
2021/10/27 11:47:37;;;;;;;15.10;14.33;;;20.60;99.90;;;;;;5108905;27;20491;-68
2021/10/27 11:50:07;;;;;;;15.97;15.03;;;21.20;99.90;;;;;;5109387;27;20648;-68
2021/10/27 11:52:37;;;;;;;16.13;15.07;;;20.80;99.90;;;;;;5101806;28;20484;-67
2021/10/27 11:55:05;;;;;;;15.90;15.00;;;20.90;99.90;;;;;;5102856;27;20465;-68
2021/10/27 11:57:33;;;;;;;15.80;14.90;;;20.90;99.90;;;;;;5098168;28;20458;-67
2021/10/27 12:00:04;;;;;;;15.30;14.50;;;20.90;99.90;;;;;;5101414;28;20461;-67
2021/10/27 12:02:52;;;;;;;15.97;14.60;;;21.40;99.90;;;;;;5095656;28;21107;-67
2021/10/27 12:05:24;;;;;;;16.37;15.20;;;21.60;99.90;;;;;;5092684;28;20453;-68
2021/10/27 12:08:13;;;;;;;15.57;14.77;;;21.30;99.90;;;;;;5103159;27;20967;-68
2021/10/27 12:10:58;;;;;;;15.97;14.77;;;21.10;99.90;;;;;;5104342;27;20494;-68
2021/10/27 12:16:37;;;;;;;15.60;14.70;;;21.70;99.90;;;;;;5015389;28;20457;-68
2021/10/27 12:19:12;;;;;;;15.80;14.90;;;21.30;99.90;;;;;;5083533;27;20465;-66
2021/10/27 12:21:48;;;;;;;16.00;14.93;;;21.20;99.90;;;;;;5097271;28;20468;-67
2021/10/27 12:24:18;;;;;;;15.87;14.97;;;21.30;99.90;;;;;;5095924;28;20460;-67
2021/10/27 12:26:46;;;;;;;16.43;15.23;;;21.70;99.90;;;;;;5104101;27;20619;-67
2021/10/27 12:29:15;;;;;;;16.07;15.10;;;21.80;99.90;;;;;;5092629;28;20481;-68
2021/10/27 12:31:45;;;;;;;16.00;15.20;;;21.60;99.90;;;;;;5111763;27;20472;-69
2021/10/27 12:34:26;;;;;;;16.97;15.83;;;20.60;99.90;;;;;;5098249;27;21020;-67
2021/10/27 12:36:55;;;;;;;16.57;15.57;;;20.20;99.90;;;;;;5100682;27;20473;-67
2021/10/27 12:39:25;;;;;;;17.27;15.93;;;20.00;99.90;;;;;;5096843;27;20457;-69
2021/10/27 12:42:05;;;;;;;17.13;16.23;;;19.50;99.90;;;;;;5099047;27;20461;-68
2021/10/27 12:44:33;;;;;;;16.70;15.07;;;19.10;99.90;;;;;;5100222;27;20481;-70
2021/10/27 12:47:13;;;;;;;17.33;16.03;;;19.20;99.90;;;;;;5104380;27;20459;-67
2021/10/27 12:49:43;;;;;;;15.87;14.97;;;19.40;99.90;;;;;;5097426;28;20489;-69
2021/10/27 12:52:32;;;;;;;15.90;15.10;;;19.70;99.90;;;;;;5101118;27;21056;-67
2021/10/27 12:55:14;;;;;;;16.40;15.40;;;20.20;99.90;;;;;;5107675;27;20537;-69
2021/10/27 12:58:02;;;;;;;17.13;15.93;;;20.30;99.90;;;;;;5101139;27;20575;-67
2021/10/27 13:00:35;;;;;;;17.00;15.10;;;19.90;99.90;;;;;;5093698;27;20897;-67
2021/10/27 13:05:58;;;;;;;17.27;16.07;;;19.70;99.90;;;;;;5064176;27;20548;-68
2021/10/27 13:11:23;;;;;;;15.93;14.97;;;19.40;99.90;;;;;;5090909;28;20472;-67
2021/10/27 13:14:01;;;;;;;16.83;15.57;;;19.60;99.90;;;;;;5105835;27;20457;-68
2021/10/27 13:16:54;;;;;;;16.67;15.60;;;20.10;99.90;;;;;;5104715;27;20522;-67
2021/10/27 13:22:21;;;;;;;16.60;15.60;;;20.50;99.90;;;;;;5068958;27;20555;-68
2021/10/27 13:30:19;;;;;;;16.67;15.57;;;21.60;99.90;;;;;;5090676;27;20865;-68
2021/10/27 13:32:51;;;;;;;16.10;15.13;;;21.60;99.90;;;;;;5095036;28;20881;-68
2021/10/27 13:35:19;;;;;;;16.70;15.40;;;21.20;99.90;;;;;;5098745;28;20907;-67
2021/10/27 13:37:49;;;;;;;16.60;15.50;;;21.20;99.90;;;;;;5102014;28;20831;-68
2021/10/27 13:40:17;;;;;;;16.17;14.97;;;21.50;99.90;;;;;;5099043;28;20492;-68
2021/10/27 13:42:48;;;;;;;15.87;15.07;;;21.30;99.90;;;;;;5096693;27;20461;-67
2021/10/27 13:45:20;;;;;;;17.30;15.97;;;21.00;99.90;;;;;;5093143;28;20504;-68
2021/10/27 13:47:59;;;;;;;16.47;15.37;;;20.70;99.90;;;;;;5100512;27;20460;-70
2021/10/27 13:59:05;;;;;;;15.77;14.70;;;19.70;99.90;;;;;;5096383;28;21017;-70
2021/10/27 14:07:08;;;;;;;16.27;15.30;;;20.60;99.90;;;;;;5076340;27;20492;-68
2021/10/27 14:09:41;;;;;;;15.83;15.03;;;20.90;99.90;;;;;;5110208;27;20587;-67
2021/10/27 14:12:19;;;;;;;16.00;15.00;;;21.10;99.90;;;;;;5103519;27;20475;-67
2021/10/27 14:14:57;;;;;;;15.90;15.10;;;21.30;99.90;;;;;;5098471;27;20460;-67
2021/10/27 14:17:43;;;;;;;15.73;14.77;;;21.00;99.90;;;;;;5098691;27;20465;-69
2021/10/27 14:20:31;;;;;;;16.77;15.50;;;21.30;99.90;;;;;;5092199;28;20554;-67
2021/10/27 14:39:52;;;;;;;16.37;15.37;;;20.60;99.90;;;;;;5086350;28;20462;-68
2021/10/27 14:50:56;;;;;;;16.03;15.20;;;20.90;99.90;;;;;;5093014;28;20452;-68
2021/10/27 15:15:25;;;;;;;16.50;15.40;;;21.00;99.90;;;;;;5029442;28;20595;-69
2021/10/27 15:21:22;;;;;;;16.53;15.33;;;20.40;99.90;;;;;;5099738;28;20498;-69
2021/10/27 15:23:59;;;;;;;16.07;14.97;;;19.90;99.90;;;;;;5104195;28;20946;-69
2021/10/27 15:29:24;;;;;;;16.53;15.57;;;20.00;99.90;;;;;;5097817;28;20495;-70
2021/10/27 15:32:13;;;;;;;16.20;15.23;;;20.20;99.90;;;;;;5099146;28;20474;-71
2021/10/27 15:34:56;;;;;;;15.43;14.60;;;20.40;99.90;;;;;;5102631;27;20494;-70
2021/10/27 15:43:16;;;;;;;15.47;14.47;;;20.20;99.90;;;;;;5053315;28;20473;-71
2021/10/27 15:51:15;;;;;;;15.30;14.40;;;19.50;99.90;;;;;;5099059;28;20558;-71
2021/10/27 15:53:42;;;;;;;14.27;13.67;;;19.20;99.90;;;;;;5105762;28;20547;-68
2021/10/27 15:56:09;;;;;;;14.80;13.90;;;18.90;99.90;;;;;;5098855;27;20464;-67
2021/10/27 15:58:36;;;;;;;14.47;13.77;;;18.80;99.90;;;;;;5106581;27;20466;-70
2021/10/27 16:01:04;;;;;;;14.23;13.63;;;18.50;99.90;;;;;;5105037;27;20566;-68
2021/10/27 16:03:32;;;;;;;14.10;13.40;;;18.20;99.90;;;;;;5106016;27;20483;-68
2021/10/27 16:06:00;;;;;;;15.00;14.00;;;17.90;99.90;;;;;;5104448;27;20473;-69
2021/10/27 16:08:30;;;;;;;15.27;14.00;;;17.60;99.90;;;;;;5097799;27;20461;-67
2021/10/27 16:10:57;;;;;;;15.00;14.00;;;17.30;99.90;;;;;;5098418;28;20532;-69
2021/10/27 16:13:25;;;;;;;15.17;14.03;;;17.00;99.90;;;;;;5101651;27;20557;-71
2021/10/27 16:15:56;;;;;;;13.83;13.10;;;16.80;99.90;;;;;;5097876;27;20935;-71
2021/10/27 16:18:24;;;;;;;14.60;13.83;;;16.50;99.90;;;;;;5100439;27;20954;-68
2021/10/27 16:20:53;;;;;;;14.57;13.77;;;16.30;99.90;;;;;;5092981;27;20796;-69
2021/10/27 16:23:21;;;;;;;14.00;13.33;;;16.10;99.90;;;;;;5097759;27;21080;-68
2021/10/27 16:25:50;;;;;;;15.63;14.40;;;15.90;99.90;;;;;;5101037;27;20599;-68
2021/10/27 16:28:17;;;;;;;14.87;14.07;;;15.70;99.90;;;;;;5102451;27;20464;-68
2021/10/27 16:30:44;;;;;;;14.70;13.70;;;15.50;99.90;;;;;;5095004;28;20858;-69
2021/10/27 16:33:14;;;;;;;15.20;14.33;;;15.40;99.90;;;;;;5098604;27;20825;-69
2021/10/27 16:35:41;;;;;;;15.43;14.30;;;15.20;99.90;;;;;;5100097;28;20894;-70